• Join FlightAware (Why Join?)
  • Login
  • US Flag 
09:00PM EDT


 

Airport Tracker/Info


-or-


 

Live Flight TrackerFlight Track Log ✈ RLI37 ✈ 02-Sep-2013 ✈ KCKZ - KHPN

Flight Track Log - Related Links

Times and Time Zones

All times are in EDT time to prevent confusion due to time zone crossing. See the RLI37 flight status page for this flight to view local times or setup timezone preferences in your user account.

Time Position Orientation Groundspeed Altitude Reporting Facility
EDT Latitude Longitude Course Direction KTS MPH feet Rate Location/Type
04:07PM 40.4000 -75.2667 30° Northeast 132 152 1,000  Level Philadelphia TRACON
04:09PM 40.5015 -75.3341 339° North  Level FlightAware Approximate
04:16PM 40.8067 -75.2534 56° Northeast  Level FlightAware Approximate
04:16PM 40.7667 -74.9833 56° Northeast 226 260 5,100  Level New York TRACON
04:17PM 40.8388 -75.1894 56° Northeast  Level FlightAware Approximate
04:17PM 40.8000 -74.9167 57° Northeast 226 260 5,100  Level New York TRACON
04:18PM 40.8708 -75.1254 56° Northeast  Level FlightAware Approximate
04:18PM 40.8500 -74.8500 45° Northeast 228 262 5,100  Level New York TRACON
04:19PM 40.9028 -75.0613 57° Northeast  Level FlightAware Approximate
04:19PM 40.9000 -74.7833 45° Northeast 239 275 4,500  Level New York TRACON
04:20PM 40.9348 -74.9971 57° Northeast  Level FlightAware Approximate
04:20PM 40.9333 -74.7333 49° Northeast 245 282 4,000  Level New York TRACON
04:21PM 40.9500 -74.9263 90° East  Level FlightAware Approximate
04:21PM 40.9833 -74.6667 45° Northeast 241 277 3,500  Level New York TRACON
04:22PM 40.9836 -74.8661 56° Northeast  Level FlightAware Approximate
04:22PM 41.0333 -74.6000 45° Northeast 247 284 3,000  Level New York TRACON
04:23PM 41.0667 -74.5333 56° Northeast 243 280 3,000  Level New York TRACON
04:24PM 41.0833 -74.4500 75° East 230 265 3,000  Level New York TRACON
04:25PM 41.1000 -74.3667 75° East 230 265 3,100  Climbing New York TRACON
04:26PM 41.1333 -74.2833 62° Northeast 228 262 3,100 -60 Level New York TRACON
04:27PM 41.1500 -74.2000 75° East 226 260 3,000 -60 Descending New York TRACON
04:28PM 41.1833 -74.1333 56° Northeast 234 269 3,000  Level New York TRACON
04:29PM 41.2167 -74.0667 56° Northeast 209 241 3,000  Level New York TRACON
04:30PM 41.2333 -74.0000 72° East 198 228 3,000  Level New York TRACON
04:31PM 41.2667 -73.9333 56° Northeast 193 222 3,000 -180 Level New York TRACON
04:32PM 41.2500 -73.8667 108° East 186 214 2,700 -420 Descending New York TRACON
04:33PM 41.2167 -73.8333 143° Southeast 175 201 2,300 -600 Descending New York TRACON
04:34PM 41.1833 -73.8000 143° Southeast 137 158 1,600 -540 Descending New York TRACON
04:35PM 41.1500 -73.7667 143° Southeast 117 135 1,200 -180 Descending New York TRACON
04:36PM 41.1333 -73.7500 143° Southeast 114 131 1,300 -60 Climbing New York TRACON
04:37PM 41.1000 -73.7333 159° South 114 131 1,100 -420 Descending New York TRACON
04:38PM 41.0833 -73.7167 143° Southeast 105 121 500  Descending New York TRACON
04:40PM 41.0667 -73.7000 146° Southeast  Level FlightAware Approximate
04:47PM 41.0669 -73.7076 146° Southeast  Level Estimated
05:24PM 41.0833 -73.6167 37° Northeast 193 222 3,100  Level New York TRACON
05:25PM 41.1500 -73.6000 11° North 217 250 3,000  Descending New York TRACON
05:26PM 41.2000 -73.6167 346° North 209 241 3,100  Climbing New York TRACON
05:27PM 41.2333 -73.6667 312° West 198 228 3,000  Descending New York TRACON
05:28PM 41.2500 -73.7333 288° West 196 226 3,100 -60 Climbing New York TRACON
05:30PM 41.3000 -73.7333 360° North 201 231 2,900 -480 Descending New York TRACON
05:31PM 41.3333 -73.6667 56° Northeast 197 227 2,100 -420 Descending New York TRACON
05:32PM 41.3333 -73.6167 90° East 166 191 2,100 -240 Level New York TRACON
05:34PM 41.3667 -73.5167 66° East 143 165 1,400 -360 Descending New York TRACON